Latest Weather Observations for Inglewood

IDQ60801

Issued at 8:35 pm EST Thursday 23 October 2014 (issued every 30 minutes, with the page automatically refreshed every 10 minutes)

About weather observations | Map of weather stations | Latest weather observations for QLD | Other Formats
Station Details ID: 041097 Name: INGLEWOOD FOREST Lat: -28.34 Lon: 150.94 Height: 379.0 m
Data from the previous 72 hours. | See also: Recent months at Inglewood
Date/Time
EST
Temp
°C
App
Temp
°C
Dew
Point
Rel
Hum
%
Delta-T
°C
Wind Press
QNH
hPa
Press
MSL
hPa
Rain
since 9 am
mm
Dir
 
Spd
km/h
Gust
km/h
Spd
kts
Gust
kts
23/08:30pm - - - - - E 22 37 12 20 - - 0.0
23/08:10pm - - - - - E 28 46 15 25 - - 0.0
23/08:00pm - - - - - E 15 28 8 15 - - 0.0
23/07:30pm - - - - - NW 6 7 3 4 - - 0.0
23/07:00pm - - - - - CALM 0 0 0 0 - - 0.0
23/06:30pm - - - - - W 6 7 3 4 - - 0.0
23/06:00pm - - - - - W 9 13 5 7 - - 0.0
23/05:30pm - - - - - SSW 9 13 5 7 - - 0.0
23/05:00pm - - - - - WSW 9 15 5 8 - - 0.0
23/04:30pm - - - - - S 13 22 7 12 - - 0.0
23/04:00pm - - - - - S 17 32 9 17 - - 0.0
23/03:30pm - - - - - SSW 13 20 7 11 - - 0.0
23/03:00pm - - - - - S 11 24 6 13 - - 0.0
23/02:30pm - - - - - WSW 9 15 5 8 - - 0.0
23/02:00pm - - - - - SW 13 24 7 13 - - 0.0
23/01:30pm - - - - - SW 11 24 6 13 - - 0.0
23/01:00pm - - - - - S 9 17 5 9 - - 0.0
23/12:30pm - - - - - WSW 13 22 7 12 - - 0.0
23/12:00pm - - - - - NW 13 22 7 12 - - 0.0
23/11:30am - - - - - W 9 19 5 10 - - 0.0
23/11:00am - - - - - WNW 11 19 6 10 - - 0.0
23/10:30am - - - - - W 11 20 6 11 - - 0.0
23/10:00am - - - - - WSW 13 20 7 11 - - 0.0
23/09:30am - - - - - NNW 11 20 6 11 - - 0.0
23/09:00am - - - - - NNE 9 19 5 10 - - 0.0
23/08:30am - - - - - NNE 9 17 5 9 - - 0.0
23/08:00am - - - - - NNE 9 15 5 8 - - 0.0
23/07:30am - - - - - NNE 11 19 6 10 - - 0.0
23/07:00am - - - - - N 13 24 7 13 - - 0.0
23/06:30am - - - - - ENE 6 9 3 5 - - 0.0
23/06:00am - - - - - CALM 0 0 0 0 - - 0.0
23/05:30am - - - - - CALM 0 0 0 0 - - 0.0
23/05:00am - - - - - ENE 6 9 3 5 - - 0.0
23/04:30am - - - - - NNE 9 13 5 7 - - 0.0
23/04:00am - - - - - NNE 9 15 5 8 - - 0.0
23/03:30am - - - - - NNE 11 19 6 10 - - 0.0
23/03:00am - - - - - NNE 13 20 7 11 - - 0.0
23/02:30am - - - - - NNE 13 19 7 10 - - 0.0
23/02:00am - - - - - NNE 13 22 7 12 - - 0.0
23/01:30am - - - - - NE 13 22 7 12 - - 0.0
23/01:00am - - - - - NE 15 24 8 13 - - 0.0
23/12:30am - - - - - NE 15 24 8 13 - - 0.0
23/12:00am - - - - - NE 15 24 8 13 - - 0.0
 
Date/Time
EST
Temp
°C
App
Temp
°C
Dew
Point
Rel
Hum
%
Delta-T
°C
Wind Press
QNH
hPa
Press
MSL
hPa
Rain
since 9 am
mm
Dir
 
Spd
km/h
Gust
km/h
Spd
kts
Gust
kts
22/11:30pm - - - - - NE 15 26 8 14 - - 0.0
22/11:00pm - - - - - NNE 15 24 8 13 - - 0.0
22/10:30pm - - - - - NNE 15 22 8 12 - - 0.0
22/10:00pm - - - - - NNE 13 19 7 10 - - 0.0
22/09:30pm - - - - - NE 15 30 8 16 - - 0.0
22/09:00pm - - - - - NE 13 17 7 9 - - 0.0
22/08:30pm - - - - - NE 11 19 6 10 - - 0.0
22/08:00pm - - - - - ENE 9 15 5 8 - - 0.0
22/07:30pm - - - - - NE 13 20 7 11 - - 0.0
22/07:00pm - - - - - NW 7 9 4 5 - - 0.0
22/06:30pm - - - - - SW 7 9 4 5 - - 0.0
22/06:00pm - - - - - CALM 0 0 0 0 - - 0.0
22/05:30pm - - - - - E 2 9 1 5 - - 0.0
22/05:00pm - - - - - SSE 6 9 3 5 - - 0.0
22/04:30pm - - - - - SSE 7 11 4 6 - - 0.0
22/04:00pm - - - - - S 7 17 4 9 - - 0.0
22/03:30pm - - - - - E 7 22 4 12 - - 0.0
22/03:00pm - - - - - SSE 13 24 7 13 - - 0.0
22/02:30pm - - - - - SSE 11 22 6 12 - - 0.0
22/02:00pm - - - - - SSE 13 20 7 11 - - 0.0
22/01:30pm - - - - - SSE 11 19 6 10 - - 0.0
22/01:00pm - - - - - SE 17 30 9 16 - - 0.0
22/12:30pm - - - - - SE 13 20 7 11 - - 0.0
22/12:00pm - - - - - ESE 11 20 6 11 - - 0.0
22/11:30am - - - - - WSW 7 15 4 8 - - 0.0
22/11:00am - - - - - E 7 15 4 8 - - 0.0
22/10:30am - - - - - ENE 9 17 5 9 - - 0.0
22/10:00am - - - - - ENE 9 17 5 9 - - 0.0
22/09:30am - - - - - E 13 26 7 14 - - 0.0
22/09:00am - - - - - E 17 28 9 15 - - 0.0
22/08:30am - - - - - ENE 13 22 7 12 - - 0.0
22/08:00am - - - - - NE 15 28 8 15 - - 0.0
22/07:30am - - - - - ENE 17 26 9 14 - - 0.0
22/07:00am - - - - - ENE 19 35 10 19 - - 0.0
22/06:30am - - - - - ENE 13 24 7 13 - - 0.0
22/06:00am - - - - - ENE 11 17 6 9 - - 0.0
22/05:30am - - - - - ENE 13 19 7 10 - - 0.0
22/05:00am - - - - - ENE 15 19 8 10 - - 0.0
22/04:30am - - - - - ENE 13 17 7 9 - - 0.0
22/04:00am - - - - - ENE 11 15 6 8 - - 0.0
22/03:30am - - - - - ENE 11 17 6 9 - - 0.0
22/03:00am - - - - - NE 11 15 6 8 - - 0.0
22/02:30am - - - - - ENE 11 19 6 10 - - 0.0
22/02:00am - - - - - NE 11 19 6 10 - - 0.0
22/01:30am - - - - - NE 13 20 7 11 - - 0.0
22/01:00am - - - - - NE 13 24 7 13 - - 0.0
22/12:30am - - - - - ENE 13 19 7 10 - - 0.0
22/12:00am - - - - - ENE 15 24 8 13 - - 0.0
 
Date/Time
EST
Temp
°C
App
Temp
°C
Dew
Point
Rel
Hum
%
Delta-T
°C
Wind Press
QNH
hPa
Press
MSL
hPa
Rain
since 9 am
mm
Dir
 
Spd
km/h
Gust
km/h
Spd
kts
Gust
kts
21/11:30pm - - - - - ENE 13 20 7 11 - - 0.0
21/11:00pm - - - - - ENE 17 28 9 15 - - 0.0
21/10:30pm - - - - - ENE 17 26 9 14 - - 0.0
21/10:00pm - - - - - ENE 17 30 9 16 - - 0.0
21/09:30pm - - - - - ENE 19 32 10 17 - - 0.0
21/09:00pm - - - - - ENE 13 24 7 13 - - 0.0
21/08:30pm - - - - - NE 13 20 7 11 - - 0.0
21/08:00pm - - - - - ENE 11 24 6 13 - - 0.0
21/07:30pm - - - - - NE 19 32 10 17 - - 0.0
21/07:00pm - - - - - ENE 19 32 10 17 - - 0.0
21/06:30pm - - - - - ENE 20 37 11 20 - - 0.0
21/06:00pm - - - - - NE 15 28 8 15 - - 0.0
21/05:30pm - - - - - E 7 13 4 7 - - 0.0
21/05:00pm - - - - - E 11 17 6 9 - - 0.0
21/04:30pm - - - - - ENE 7 17 4 9 - - 0.0
21/04:00pm - - - - - NNW 7 11 4 6 - - 0.0
21/03:30pm - - - - - SE 9 19 5 10 - - 0.0
21/03:00pm - - - - - ESE 13 24 7 13 - - 0.0
21/02:30pm - - - - - SSE 15 28 8 15 - - 0.0
21/02:00pm - - - - - ESE 15 28 8 15 - - 0.0
21/01:30pm - - - - - E 15 26 8 14 - - 0.0
21/01:00pm - - - - - E 15 26 8 14 - - 0.0
21/12:30pm - - - - - SE 11 24 6 13 - - 0.0
21/12:00pm - - - - - E 19 28 10 15 - - 0.0
21/11:30am - - - - - E 15 28 8 15 - - 0.0
21/11:00am - - - - - E 15 26 8 14 - - 0.0
21/10:30am - - - - - E 13 22 7 12 - - 0.0
21/10:00am - - - - - E 20 39 11 21 - - 0.0
21/09:30am - - - - - E 17 26 9 14 - - 0.0
21/09:00am - - - - - E 19 28 10 15 - - 0.0
21/08:30am - - - - - ENE 17 28 9 15 - - 0.0
21/08:00am - - - - - NE 17 24 9 13 - - 0.0
21/07:30am - - - - - E 19 33 10 18 - - 0.0
21/07:00am - - - - - ENE 17 35 9 19 - - 0.0
21/06:30am - - - - - ENE 13 20 7 11 - - 0.0
21/06:00am - - - - - ENE 11 15 6 8 - - 0.0
21/05:30am - - - - - NE 9 13 5 7 - - 0.0
21/05:00am - - - - - NE 9 17 5 9 - - 0.0
21/04:30am - - - - - NE 11 17 6 9 - - 0.0
21/04:00am - - - - - NE 9 17 5 9 - - 0.0
21/03:30am - - - - - ENE 15 24 8 13 - - 0.0
21/03:00am - - - - - ENE 17 26 9 14 - - 0.0
21/02:30am - - - - - ENE 13 20 7 11 - - 0.0
21/02:00am - - - - - ENE 13 20 7 11 - - 0.0
21/01:30am - - - - - ENE 11 17 6 9 - - 0.0
21/01:00am - - - - - ENE 13 20 7 11 - - 0.0
21/12:30am - - - - - E 15 22 8 12 - - 0.0
21/12:00am - - - - - ENE 17 32 9 17 - - 0.0
 
Date/Time
EST
Temp
°C
App
Temp
°C
Dew
Point
Rel
Hum
%
Delta-T
°C
Wind Press
QNH
hPa
Press
MSL
hPa
Rain
since 9 am
mm
Dir
 
Spd
km/h
Gust
km/h
Spd
kts
Gust
kts
20/11:30pm - - - - - ENE 19 30 10 16 - - 0.0
20/11:00pm - - - - - ENE 20 37 11 20 - - 0.0
20/10:30pm - - - - - ENE 20 35 11 19 - - 0.0
20/10:00pm - - - - - ENE 24 43 13 23 - - 0.0
20/09:30pm - - - - - ENE 22 33 12 18 - - 0.0
20/09:00pm - - - - - ENE 20 35 11 19 - - 0.0

Other Formats:

Comma delimited format used in spreadsheet applications
http://www.bom.gov.au/fwo/IDQ60801/IDQ60801.95573.axf

JavaScript Object Notation format (JSON) in row-major order
http://www.bom.gov.au/fwo/IDQ60801/IDQ60801.95573.json